地図

経路データ

SID SEASON NUMBER BASIN SUBBASIN NAME ISO_TIME NATURE LAT LON WMO_WIND WMO_PRES WMO_AGENCY TRACK_TYPE DIST2LAND LANDFALL IFLAG USA_AGENCY USA_ATCF_ID USA_LAT USA_LON USA_RECORD USA_STATUS USA_WIND USA_PRES USA_SSHS USA_R34_NE USA_R34_SE USA_R34_SW USA_R34_NW USA_R50_NE USA_R50_SE USA_R50_SW USA_R50_NW USA_R64_NE USA_R64_SE USA_R64_SW USA_R64_NW USA_POCI USA_ROCI USA_RMW USA_EYE TOKYO_LAT TOKYO_LON TOKYO_GRADE TOKYO_WIND TOKYO_PRES TOKYO_R50_DIR TOKYO_R50_LONG TOKYO_R50_SHORT TOKYO_R30_DIR TOKYO_R30_LONG TOKYO_R30_SHORT TOKYO_LAND CMA_LAT CMA_LON CMA_CAT CMA_WIND CMA_PRES HKO_LAT HKO_LON HKO_CAT HKO_WIND HKO_PRES NEWDELHI_LAT NEWDELHI_LON NEWDELHI_GRADE NEWDELHI_WIND NEWDELHI_PRES NEWDELHI_CI NEWDELHI_DP NEWDELHI_POCI REUNION_LAT REUNION_LON REUNION_TYPE REUNION_WIND REUNION_PRES REUNION_TNUM REUNION_CI REUNION_RMW REUNION_R34_NE REUNION_R34_SE REUNION_R34_SW REUNION_R34_NW REUNION_R50_NE REUNION_R50_SE REUNION_R50_SW REUNION_R50_NW REUNION_R64_NE REUNION_R64_SE REUNION_R64_SW REUNION_R64_NW BOM_LAT BOM_LON BOM_TYPE BOM_WIND BOM_PRES BOM_TNUM BOM_CI BOM_RMW BOM_R34_NE BOM_R34_SE BOM_R34_SW BOM_R34_NW BOM_R50_NE BOM_R50_SE BOM_R50_SW BOM_R50_NW BOM_R64_NE BOM_R64_SE BOM_R64_SW BOM_R64_NW BOM_ROCI BOM_POCI BOM_EYE BOM_POS_METHOD BOM_PRES_METHOD NADI_LAT NADI_LON NADI_CAT NADI_WIND NADI_PRES WELLINGTON_LAT WELLINGTON_LON WELLINGTON_WIND WELLINGTON_PRES DS824_LAT DS824_LON DS824_STAGE DS824_WIND DS824_PRES TD9636_LAT TD9636_LON TD9636_STAGE TD9636_WIND TD9636_PRES TD9635_LAT TD9635_LON TD9635_WIND TD9635_PRES TD9635_ROCI NEUMANN_LAT NEUMANN_LON NEUMANN_CLASS NEUMANN_WIND NEUMANN_PRES MLC_LAT MLC_LON MLC_CLASS MLC_WIND MLC_PRES USA_GUST BOM_GUST BOM_GUST_PER REUNION_GUST REUNION_GUST_PER USA_SEAHGT USA_SEARAD_NE USA_SEARAD_SE USA_SEARAD_SW USA_SEARAD_NW STORM_SPEED STORM_DIR
1969237N29281 1969 63 NA NA EVE 1969-08-24 18:00:00 TS 29.4000 -79.2000 25 hurdat_atl main 161 161 O_____________ hurdat_atl AL121969 29.4000 -79.2000 TD 25 -1 6 89
1969237N29281 1969 63 NA NA EVE 1969-08-24 21:00:00 TS 29.4025 -78.8750 main 185 185 P_____________ AL121969 29.4025 -78.8750 TD 27 -1 6 90
1969237N29281 1969 63 NA NA EVE 1969-08-25 00:00:00 TS 29.4000 -78.5000 30 hurdat_atl main 218 218 O_____________ hurdat_atl AL121969 29.4000 -78.5000 TD 30 -1 7 91
1969237N29281 1969 63 NA NA EVE 1969-08-25 03:00:00 TS 29.3926 -78.0499 main 262 262 P_____________ AL121969 29.3926 -78.0499 TD 30 -1 8 90
1969237N29281 1969 63 NA NA EVE 1969-08-25 06:00:00 TS 29.4000 -77.6000 30 hurdat_atl main 299 299 O_____________ hurdat_atl AL121969 29.4000 -77.6000 TD 30 -1 7 87
1969237N29281 1969 63 NA NA EVE 1969-08-25 09:00:00 TS 29.4347 -77.2424 main 336 336 P_____________ AL121969 29.4347 -77.2424 TD 32 -1 6 81
1969237N29281 1969 63 NA NA EVE 1969-08-25 12:00:00 TS 29.5000 -76.9000 35 hurdat_atl main 367 367 O_____________ hurdat_atl AL121969 29.5000 -76.9000 TS 35 0 6 77
1969237N29281 1969 63 NA NA EVE 1969-08-25 15:00:00 TS 29.5848 -76.5186 main 407 407 P_____________ AL121969 29.5848 -76.5224 TS 37 0 7 74
1969237N29281 1969 63 NA NA EVE 1969-08-25 18:00:00 TS 29.7000 -76.1000 40 hurdat_atl main 447 447 O_____________ hurdat_atl AL121969 29.7000 -76.1000 TS 40 0 8 72
1969237N29281 1969 63 NA NA EVE 1969-08-25 21:00:00 TS 29.8426 -75.6251 main 496 496 P_____________ AL121969 29.8426 -75.6001 TS 45 0 9 70
1969237N29281 1969 63 NA NA EVE 1969-08-26 00:00:00 TS 30.0000 -75.1500 50 999 hurdat_atl main 513 509 O_____________ hurdat_atl AL121969 30.0000 -75.1000 TS 50 999 0 8 69
1969237N29281 1969 63 NA NA EVE 1969-08-26 03:00:00 TS 30.1386 -74.7310 main 525 516 P_____________ AL121969 30.1348 -74.6772 TS 47 998 0 8 67
1969237N29281 1969 63 NA NA EVE 1969-08-26 06:00:00 TS 30.3000 -74.3500 45 hurdat_atl main 531 519 I_____________ hurdat_atl AL121969 30.3000 -74.3000 TS 45 997 0 7 60
1969237N29281 1969 63 NA NA EVE 1969-08-26 09:00:00 TS 30.5022 -74.0034 main 523 512 P_____________ AL121969 30.5348 -73.9424 TS 45 996 0 8 53
1969237N29281 1969 63 NA NA EVE 1969-08-26 12:00:00 TS 30.7500 -73.6500 45 996 hurdat_atl main 512 503 O_____________ hurdat_atl AL121969 30.8000 -73.6000 TS 45 996 0 7 50
1969237N29281 1969 63 NA NA EVE 1969-08-26 15:00:00 TS 30.9769 -73.3519 main 503 499 P_____________ AL121969 31.0343 -73.3016 TS 45 996 0 8 49
1969237N29281 1969 63 NA NA EVE 1969-08-26 18:00:00 TS 31.3000 -72.9000 40 997 hurdat_atl main 505 503 O_____________ hurdat_atl AL121969 31.3000 -72.9000 TS 45 997 0 12 54
1969237N29281 1969 63 NA NA EVE 1969-08-26 21:00:00 TS 31.6576 -72.2528 main 513 513 P_____________ AL121969 31.6502 -72.2605 TS 42 0 14 60
1969237N29281 1969 63 NA NA EVE 1969-08-27 00:00:00 TS 32.0000 -71.5000 40 hurdat_atl main 549 549 O_____________ hurdat_atl AL121969 32.0000 -71.5000 TS 40 0 14 64
1969237N29281 1969 63 NA NA EVE 1969-08-27 03:00:00 TS 32.2731 -70.7453 main 588 588 P_____________ AL121969 32.2755 -70.7426 TS 37 0 14 68
1969237N29281 1969 63 NA NA EVE 1969-08-27 06:00:00 TS 32.5000 -70.0000 35 hurdat_atl main 624 O_____________ hurdat_atl AL121969 32.5000 -70.0000 TS 35 0 13 70

IBTrACS Databaseについて

本データベースは、米国NOAAが公開する1842年以降の世界の熱帯低気圧のベストトラックデータアーカイブInternational Best Track Archive for Climate Stewardship (IBTrACS)を、ウェブで閲覧しやすい形式に変換したものです。

最終更新日:2022-05-26